Terminal Aerodrome Forecast
Issued by NWS Wilmington, OH

Current Version | Previous Version | Text Only | Print | Product List | Glossary Off
Versions: 1 2 3 4 5 6 7 8 9 10 11 12 13 14 15 16 17 18 19 20 21 22

000
FTUS41 KILN 211100
TAFDAY
TAF
KDAY 211120Z 2112/2212 00000KT P6SM FEW250
     FM211300 09004KT P6SM SCT025
     FM211600 08006KT P6SM SCT035
     FM220100 VRB03KT P6SM SKC=

USA.gov is the U.S. government's official web portal to all federal, state and local government web resources and services.